createdAt,value
2022-07-30T00:00:24.661Z,4.47
2022-07-30T00:02:53.325Z,4.88
2022-07-30T00:05:21.446Z,4.70
2022-07-30T00:07:49.268Z,4.82
2022-07-30T00:10:18.807Z,4.50
2022-07-30T00:12:46.668Z,4.65
2022-07-30T00:15:14.509Z,5.47
2022-07-30T00:17:42.288Z,5.00
2022-07-30T00:20:14.665Z,4.93
2022-07-30T00:22:42.534Z,4.88
2022-07-30T00:25:10.814Z,5.38
2022-07-30T00:27:41.017Z,5.50
2022-07-30T00:30:09.965Z,5.80
2022-07-30T00:32:37.872Z,5.35
2022-07-30T00:35:06.585Z,6.05
2022-07-30T00:37:34.366Z,5.88
2022-07-30T00:40:02.186Z,5.50
2022-07-30T00:42:40.377Z,5.40
2022-07-30T00:45:09.730Z,6.10
2022-07-30T00:47:38.351Z,6.40
2022-07-30T00:50:08.147Z,6.10
2022-07-30T00:52:36.115Z,6.97
2022-07-30T00:55:05.089Z,7.07
2022-07-30T00:57:32.856Z,5.95
2022-07-30T01:00:06.085Z,6.50
2022-07-30T01:02:34.198Z,5.82
2022-07-30T01:05:02.386Z,6.60
2022-07-30T01:07:30.495Z,6.90
2022-07-30T01:09:58.280Z,6.82
2022-07-30T01:12:27.840Z,7.22
2022-07-30T01:14:57.821Z,6.95
2022-07-30T01:17:27.426Z,6.25
2022-07-30T01:19:59.985Z,6.88
2022-07-30T01:22:44.433Z,6.85
2022-07-30T01:25:18.176Z,7.32
2022-07-30T01:27:51.060Z,7.10
2022-07-30T01:30:22.421Z,7.35
2022-07-30T01:32:51.602Z,6.47
2022-07-30T01:35:21.591Z,7.55
2022-07-30T01:37:50.920Z,7.65
2022-07-30T01:40:19.238Z,7.10
2022-07-30T01:42:54.708Z,6.75
2022-07-30T01:45:24.559Z,6.75
2022-07-30T01:47:54.120Z,7.20
2022-07-30T01:50:23.671Z,6.95
2022-07-30T01:52:53.760Z,7.40
2022-07-30T01:55:25.739Z,7.45
2022-07-30T01:57:56.591Z,7.40
2022-07-30T02:00:27.477Z,7.07
2022-07-30T02:02:55.394Z,7.15
2022-07-30T02:05:23.479Z,6.80
2022-07-30T02:07:57.145Z,7.25
2022-07-30T02:10:32.267Z,7.18
2022-07-30T02:13:02.297Z,6.47
2022-07-30T02:15:35.507Z,7.18
2022-07-30T02:18:11.132Z,6.57
2022-07-30T02:20:49.566Z,7.47
2022-07-30T02:23:19.197Z,7.43
2022-07-30T02:25:51.332Z,7.00
2022-07-30T02:28:23.099Z,6.95
2022-07-30T02:30:54.357Z,6.63
2022-07-30T02:33:25.841Z,6.85
2022-07-30T02:35:55.135Z,7.10
2022-07-30T02:38:25.318Z,7.30
2022-07-30T02:40:53.982Z,6.60
2022-07-30T02:43:25.828Z,7.63
2022-07-30T02:45:54.615Z,7.68
2022-07-30T02:48:34.305Z,7.68
2022-07-30T02:51:05.327Z,8.15
2022-07-30T02:53:34.927Z,9.20
2022-07-30T02:56:04.002Z,8.52
2022-07-30T02:58:33.747Z,8.63
2022-07-30T03:01:03.496Z,8.18
2022-07-30T03:03:32.882Z,8.68
2022-07-30T03:06:03.232Z,9.02
2022-07-30T03:08:33.764Z,9.30
2022-07-30T03:11:03.153Z,8.60
2022-07-30T03:13:31.168Z,8.68
2022-07-30T03:16:03.443Z,8.13
2022-07-30T03:18:35.136Z,8.73
2022-07-30T03:21:04.744Z,9.00
2022-07-30T03:23:36.521Z,8.98
2022-07-30T03:26:06.435Z,8.98
2022-07-30T03:28:37.782Z,8.23
2022-07-30T03:31:08.006Z,8.13
2022-07-30T03:33:38.797Z,8.35
2022-07-30T03:36:07.880Z,7.10
2022-07-30T03:38:37.267Z,8.38
2022-07-30T03:41:06.068Z,8.13
2022-07-30T03:43:34.829Z,6.88
2022-07-30T03:46:04.363Z,7.68
2022-07-30T03:48:35.598Z,7.22
2022-07-30T03:51:04.674Z,6.85
2022-07-30T03:53:33.639Z,7.72
2022-07-30T03:56:01.811Z,6.63
2022-07-30T03:58:35.748Z,6.88
2022-07-30T04:01:04.263Z,6.95
2022-07-30T04:03:34.618Z,7.47
2022-07-30T04:06:02.525Z,5.85
2022-07-30T04:08:30.520Z,7.00
2022-07-30T04:10:58.732Z,6.15
2022-07-30T04:13:26.719Z,6.25
2022-07-30T04:16:41.523Z,5.90
2022-07-30T04:19:02.204Z,6.32
2022-07-30T04:21:32.164Z,6.10
2022-07-30T04:24:05.149Z,5.88
2022-07-30T04:26:36.319Z,6.43
2022-07-30T04:29:06.986Z,6.95
2022-07-30T04:31:39.994Z,6.30
2022-07-30T04:34:14.203Z,6.45
2022-07-30T04:36:42.761Z,6.68
2022-07-30T04:39:10.941Z,6.85
2022-07-30T04:41:48.523Z,6.78
2022-07-30T04:44:17.186Z,6.03
2022-07-30T04:46:44.985Z,6.18
2022-07-30T04:49:16.813Z,6.13
2022-07-30T04:51:47.079Z,6.60
2022-07-30T04:54:16.661Z,5.72
2022-07-30T04:56:52.600Z,5.90
2022-07-30T04:59:24.889Z,5.35
2022-07-30T05:01:54.054Z,6.72
2022-07-30T05:04:24.904Z,8.15
2022-07-30T05:06:53.626Z,5.93
2022-07-30T05:09:21.713Z,5.38
2022-07-30T05:11:52.956Z,8.00
2022-07-30T05:14:20.945Z,6.03
2022-07-30T05:16:48.845Z,6.70
2022-07-30T05:19:16.916Z,9.65
2022-07-30T05:21:46.104Z,7.45
2022-07-30T05:24:13.940Z,9.07
2022-07-30T05:26:42.156Z,9.45
2022-07-30T05:29:18.041Z,10.25
2022-07-30T05:31:47.654Z,9.15
2022-07-30T05:34:15.508Z,9.63
2022-07-30T05:36:44.602Z,10.40
2022-07-30T05:39:13.989Z,10.07
2022-07-30T05:41:41.753Z,9.88
2022-07-30T05:44:09.573Z,9.57
2022-07-30T05:46:37.418Z,9.70
2022-07-30T05:49:06.379Z,10.23
2022-07-30T05:51:34.270Z,10.95
2022-07-30T05:54:02.285Z,10.45
2022-07-30T05:56:31.478Z,9.88
2022-07-30T05:58:59.265Z,9.68
2022-07-30T06:01:27.139Z,8.98
2022-07-30T06:03:55.053Z,9.30
2022-07-30T06:06:23.417Z,9.43
2022-07-30T06:08:51.480Z,9.43
2022-07-30T06:11:19.410Z,9.02
2022-07-30T06:13:48.499Z,9.20
2022-07-30T06:16:16.378Z,9.48
2022-07-30T06:18:44.248Z,8.52
2022-07-30T06:21:12.251Z,9.55
2022-07-30T06:23:40.209Z,9.43
2022-07-30T06:26:07.995Z,9.80
2022-07-30T06:28:38.146Z,8.63
2022-07-30T06:31:08.617Z,8.50
2022-07-30T06:33:36.444Z,9.65
2022-07-30T06:36:04.527Z,9.80
2022-07-30T06:38:32.492Z,7.53
2022-07-30T06:41:02.651Z,8.10
2022-07-30T06:43:32.446Z,7.57
2022-07-30T06:46:00.643Z,7.65
2022-07-30T06:48:32.616Z,7.45
2022-07-30T06:51:00.427Z,6.97
2022-07-30T06:53:28.540Z,7.00
2022-07-30T06:55:58.544Z,6.43
2022-07-30T06:58:29.141Z,6.00
2022-07-30T07:00:57.164Z,6.28
2022-07-30T07:03:26.178Z,7.03
2022-07-30T07:06:09.724Z,7.93
2022-07-30T07:08:38.131Z,6.95
2022-07-30T07:11:06.140Z,6.00
2022-07-30T07:13:33.949Z,6.70
2022-07-30T07:16:01.775Z,5.93
2022-07-30T07:18:29.577Z,4.93
2022-07-30T07:20:57.401Z,5.65
2022-07-30T07:23:26.573Z,4.80
2022-07-30T07:26:10.668Z,5.70
2022-07-30T07:28:40.047Z,5.78
2022-07-30T07:31:08.437Z,4.93
2022-07-30T07:33:36.480Z,5.93
2022-07-30T07:36:04.735Z,4.95
2022-07-30T07:38:34.304Z,6.05
2022-07-30T07:41:02.076Z,5.07
2022-07-30T07:43:29.925Z,4.47
2022-07-30T07:45:57.826Z,6.15
2022-07-30T07:48:25.712Z,5.47
2022-07-30T07:50:55.951Z,7.60
2022-07-30T07:53:26.286Z,6.57
2022-07-30T07:55:55.421Z,7.18
2022-07-30T07:58:26.363Z,6.45
2022-07-30T08:00:55.461Z,5.72
2022-07-30T08:03:23.547Z,8.10
2022-07-30T08:06:00.990Z,5.07
2022-07-30T08:08:36.484Z,7.18
2022-07-30T08:11:06.982Z,7.80
2022-07-30T08:13:49.217Z,6.43
2022-07-30T08:18:48.064Z,5.30
2022-07-30T08:21:16.267Z,5.80
2022-07-30T08:23:44.158Z,7.10
2022-07-30T08:26:13.304Z,7.07
2022-07-30T08:28:42.987Z,7.15
2022-07-30T08:31:11.066Z,6.82
2022-07-30T08:33:38.824Z,5.68
2022-07-30T08:36:09.739Z,4.82
2022-07-30T08:38:38.779Z,7.57
2022-07-30T08:41:07.447Z,6.55
2022-07-30T08:43:37.344Z,8.57
2022-07-30T08:46:09.663Z,6.68
2022-07-30T08:48:37.952Z,6.13
2022-07-30T08:51:06.206Z,7.50
2022-07-30T08:53:35.346Z,6.53
2022-07-30T08:56:03.752Z,7.18
2022-07-30T08:58:33.908Z,6.75
2022-07-30T09:01:04.045Z,5.88
2022-07-30T09:03:32.564Z,5.63
2022-07-30T09:06:01.967Z,6.60
2022-07-30T09:08:30.029Z,5.65
2022-07-30T09:10:58.142Z,6.15
2022-07-30T09:13:27.787Z,5.97
2022-07-30T09:15:56.380Z,4.68
2022-07-30T09:18:33.565Z,5.03
2022-07-30T09:21:02.978Z,5.40
2022-07-30T09:23:30.959Z,4.25
2022-07-30T09:26:00.833Z,4.18
2022-07-30T09:28:31.670Z,4.72
2022-07-30T09:31:00.373Z,4.15
2022-07-30T09:33:37.518Z,4.47
2022-07-30T09:36:07.233Z,3.97
2022-07-30T09:38:47.555Z,3.13
2022-07-30T09:41:36.274Z,3.42
2022-07-30T09:44:06.189Z,2.60
2022-07-30T09:46:43.405Z,2.85
2022-07-30T09:49:20.416Z,2.90
2022-07-30T09:51:56.545Z,3.45
2022-07-30T09:54:26.463Z,3.90
2022-07-30T09:57:25.787Z,3.63
2022-07-30T09:59:54.841Z,2.67
2022-07-30T10:02:29.402Z,2.95
2022-07-30T10:05:14.385Z,3.00
2022-07-30T10:07:51.234Z,3.70
2022-07-30T10:10:21.661Z,2.10
2022-07-30T10:12:55.268Z,2.63
2022-07-30T10:15:28.702Z,3.20
2022-07-30T10:17:57.061Z,2.92
2022-07-30T10:20:26.652Z,2.38
2022-07-30T10:22:55.613Z,2.05
2022-07-30T10:25:27.923Z,1.80
2022-07-30T10:27:57.228Z,2.33
2022-07-30T10:30:28.158Z,2.97
2022-07-30T10:32:58.447Z,2.55
2022-07-30T10:35:34.234Z,2.40
2022-07-30T10:38:13.848Z,2.00
2022-07-30T10:40:48.548Z,2.17
2022-07-30T10:43:46.299Z,2.80
2022-07-30T10:46:22.824Z,2.40
2022-07-30T10:48:51.178Z,2.25
2022-07-30T10:51:25.480Z,2.20
2022-07-30T10:54:02.476Z,2.47
2022-07-30T10:56:30.392Z,2.05
2022-07-30T10:59:02.905Z,2.50
2022-07-30T11:02:10.332Z,2.33
2022-07-30T11:04:38.274Z,2.58
2022-07-30T11:07:32.633Z,2.30
2022-07-30T11:10:05.251Z,2.17
2022-07-30T11:12:53.731Z,2.58
2022-07-30T11:15:22.610Z,2.58
2022-07-30T11:18:12.850Z,2.20
2022-07-30T11:20:47.681Z,2.10
2022-07-30T11:23:40.585Z,1.92
2022-07-30T11:26:14.266Z,2.15
2022-07-30T11:28:44.715Z,2.20
2022-07-30T11:31:55.042Z,1.80
2022-07-30T11:34:26.901Z,2.20
2022-07-30T11:37:19.173Z,2.22
2022-07-30T11:40:12.164Z,1.83
2022-07-30T11:42:42.624Z,1.80
2022-07-30T11:45:26.826Z,2.13
2022-07-30T11:47:56.284Z,2.05
2022-07-30T11:50:25.947Z,1.90
2022-07-30T11:52:55.631Z,1.90
2022-07-30T11:55:26.220Z,2.22
2022-07-30T11:57:54.485Z,2.20
2022-07-30T12:00:22.560Z,2.30
2022-07-30T12:05:25.022Z,2.20
2022-07-30T12:07:53.379Z,2.20
2022-07-30T12:10:26.919Z,1.75
2022-07-30T12:13:08.475Z,3.30
2022-07-30T12:15:39.113Z,1.92
2022-07-30T12:20:59.263Z,2.00
2022-07-30T12:23:28.292Z,1.63
2022-07-30T12:25:56.785Z,2.40
2022-07-30T12:28:29.830Z,2.33
2022-07-30T12:31:00.125Z,1.98
2022-07-30T12:33:28.156Z,1.83
2022-07-30T12:35:57.233Z,1.80
2022-07-30T12:38:27.008Z,1.80
2022-07-30T12:40:57.519Z,2.70
2022-07-30T12:43:47.235Z,1.67
2022-07-30T12:46:17.949Z,1.88
2022-07-30T12:48:53.449Z,1.55
2022-07-30T12:51:24.107Z,2.08
2022-07-30T12:53:52.666Z,1.90
2022-07-30T12:56:23.660Z,1.90
2022-07-30T12:58:52.815Z,1.77
2022-07-30T13:01:39.479Z,1.70
2022-07-30T13:04:07.536Z,1.58
2022-07-30T13:06:35.501Z,1.48
2022-07-30T13:09:03.257Z,1.50
2022-07-30T13:11:40.507Z,1.67
2022-07-30T13:14:12.429Z,1.90
2022-07-30T13:16:41.702Z,1.60
2022-07-30T13:19:11.972Z,1.80
2022-07-30T13:21:40.976Z,2.00
2022-07-30T13:24:18.254Z,2.08
2022-07-30T13:26:46.281Z,1.90
2022-07-30T13:29:15.404Z,1.42
2022-07-30T13:31:43.654Z,1.73
2022-07-30T13:34:12.045Z,1.73
2022-07-30T13:36:39.914Z,1.88
2022-07-30T13:39:08.290Z,1.92
2022-07-30T13:41:36.740Z,1.88
2022-07-30T13:44:05.037Z,1.80
2022-07-30T13:46:34.416Z,1.60
2022-07-30T13:49:02.237Z,1.98
2022-07-30T13:51:30.070Z,1.60
2022-07-30T13:53:57.826Z,1.65
2022-07-30T13:56:25.664Z,1.67
2022-07-30T13:58:54.617Z,1.67
2022-07-30T14:01:22.762Z,1.85
2022-07-30T14:03:51.889Z,1.42
2022-07-30T14:06:19.995Z,1.60
2022-07-30T14:08:48.036Z,1.80
2022-07-30T14:11:16.790Z,1.50
2022-07-30T14:13:45.662Z,1.45
2022-07-30T14:16:35.302Z,1.60
2022-07-30T14:19:03.109Z,1.60
2022-07-30T14:21:31.120Z,1.60
2022-07-30T14:23:58.899Z,1.75
2022-07-30T14:26:30.036Z,1.83
2022-07-30T14:29:04.644Z,1.48
2022-07-30T14:31:32.415Z,1.90
2022-07-30T14:34:00.269Z,1.77
2022-07-30T14:36:30.100Z,1.35
2022-07-30T14:38:58.502Z,1.58
2022-07-30T14:41:28.181Z,1.55
2022-07-30T14:43:56.701Z,1.63
2022-07-30T14:46:24.777Z,2.05
2022-07-30T14:48:52.667Z,1.70
2022-07-30T14:51:25.876Z,1.55
2022-07-30T14:53:55.939Z,1.33
2022-07-30T14:56:25.015Z,1.30
2022-07-30T14:58:54.106Z,1.40
2022-07-30T15:01:22.045Z,1.52
2022-07-30T15:03:50.341Z,1.52
2022-07-30T15:06:18.125Z,1.38
2022-07-30T15:08:46.538Z,1.30
2022-07-30T15:11:15.771Z,1.48
2022-07-30T15:13:49.978Z,1.33
2022-07-30T15:16:18.874Z,1.08
2022-07-30T15:18:46.699Z,1.10
2022-07-30T15:21:14.647Z,1.25
2022-07-30T15:23:42.460Z,1.30
2022-07-30T15:26:10.337Z,1.48
2022-07-30T15:28:40.494Z,1.30
2022-07-30T15:31:08.392Z,1.30
2022-07-30T15:33:37.202Z,0.98
2022-07-30T15:36:05.592Z,1.30
2022-07-30T15:38:33.621Z,1.00
2022-07-30T15:41:01.602Z,1.10
2022-07-30T15:43:29.421Z,1.30
2022-07-30T15:45:58.575Z,1.20
2022-07-30T15:48:27.685Z,0.90
2022-07-30T15:51:00.527Z,1.00
2022-07-30T15:53:28.327Z,0.98
2022-07-30T15:55:56.097Z,1.10
2022-07-30T15:58:23.977Z,2.40
2022-07-30T16:00:51.894Z,1.30
2022-07-30T16:03:21.043Z,2.28
2022-07-30T16:05:52.173Z,1.30
2022-07-30T16:08:20.651Z,1.52
2022-07-30T16:10:48.972Z,1.38
2022-07-30T16:13:16.896Z,1.70
2022-07-30T16:15:44.700Z,1.38
2022-07-30T16:18:12.467Z,1.40
2022-07-30T16:20:41.614Z,1.30
2022-07-30T16:23:13.924Z,1.27
2022-07-30T16:25:43.753Z,1.10
2022-07-30T16:28:11.554Z,1.17
2022-07-30T16:30:50.557Z,1.35
2022-07-30T16:33:19.873Z,1.70
2022-07-30T16:35:51.013Z,1.98
2022-07-30T16:38:19.462Z,1.60
2022-07-30T16:40:47.488Z,2.15
2022-07-30T16:43:16.189Z,1.25
2022-07-30T16:45:44.581Z,1.48
2022-07-30T16:48:13.649Z,2.15
2022-07-30T16:50:41.588Z,1.65
2022-07-30T16:53:14.198Z,1.52
2022-07-30T16:55:42.629Z,1.70
2022-07-30T16:58:10.569Z,2.33
2022-07-30T17:00:38.465Z,1.55
2022-07-30T17:03:06.386Z,1.70
2022-07-30T17:05:34.199Z,1.50
2022-07-30T17:08:02.061Z,1.60
2022-07-30T17:10:31.173Z,1.60
2022-07-30T17:12:59.344Z,1.55
2022-07-30T17:15:32.450Z,1.40
2022-07-30T17:18:01.065Z,1.17
2022-07-30T17:20:28.924Z,3.25
2022-07-30T17:22:56.959Z,4.80
2022-07-30T17:25:27.198Z,3.03
2022-07-30T17:27:56.489Z,5.40
2022-07-30T17:30:24.522Z,2.50
2022-07-30T17:32:52.556Z,2.00
2022-07-30T17:35:20.857Z,3.05
2022-07-30T17:37:48.694Z,3.28
2022-07-30T17:40:29.099Z,3.15
2022-07-30T17:43:04.514Z,3.47
2022-07-30T17:45:33.314Z,2.20
2022-07-30T17:48:01.365Z,2.88
2022-07-30T17:50:29.725Z,2.15
2022-07-30T17:52:57.615Z,2.00
2022-07-30T17:55:25.588Z,1.60
2022-07-30T17:57:53.352Z,2.00
2022-07-30T18:00:23.407Z,2.40
2022-07-30T18:02:51.168Z,2.40
2022-07-30T18:05:18.990Z,3.17
2022-07-30T18:07:46.899Z,2.47
2022-07-30T18:10:14.681Z,1.52
2022-07-30T18:12:49.167Z,1.90
2022-07-30T18:15:17.599Z,2.40
2022-07-30T18:17:46.929Z,1.63
2022-07-30T18:20:15.580Z,1.70
2022-07-30T18:22:43.376Z,1.40
2022-07-30T18:25:18.008Z,1.90
2022-07-30T18:27:47.247Z,1.70
2022-07-30T18:30:15.418Z,1.75
2022-07-30T18:32:43.313Z,1.65
2022-07-30T18:35:14.857Z,1.67
2022-07-30T18:37:43.389Z,1.55
2022-07-30T18:40:12.680Z,1.90
2022-07-30T18:42:40.528Z,1.80
2022-07-30T18:45:10.186Z,1.50
2022-07-30T18:47:38.009Z,1.50
2022-07-30T18:50:06.708Z,1.58
2022-07-30T18:52:36.008Z,1.50
2022-07-30T18:55:04.945Z,1.50
2022-07-30T18:57:32.785Z,1.38
2022-07-30T19:00:00.711Z,1.63
2022-07-30T19:02:28.785Z,1.05
2022-07-30T19:04:58.323Z,1.30
2022-07-30T19:07:26.149Z,1.73
2022-07-30T19:09:57.951Z,1.50
2022-07-30T19:12:27.270Z,1.10
2022-07-30T19:14:55.318Z,1.45
2022-07-30T19:17:23.347Z,1.50
2022-07-30T19:20:11.989Z,1.50
2022-07-30T19:22:40.448Z,3.60
2022-07-30T19:25:10.796Z,1.60
2022-07-30T19:27:38.582Z,1.10
2022-07-30T19:30:07.512Z,4.18
2022-07-30T19:32:35.312Z,1.80
2022-07-30T19:35:03.122Z,1.42
2022-07-30T19:37:30.951Z,1.20
2022-07-30T19:40:06.201Z,0.73
2022-07-30T19:42:36.049Z,1.50
2022-07-30T19:45:12.081Z,0.90
2022-07-30T19:47:42.145Z,1.20
2022-07-30T19:50:11.358Z,1.73
2022-07-30T19:52:39.930Z,1.20
2022-07-30T19:55:17.010Z,1.25
2022-07-30T19:58:01.191Z,1.27
2022-07-30T20:00:31.848Z,1.40
2022-07-30T20:03:03.703Z,1.10
2022-07-30T20:05:32.609Z,1.45
2022-07-30T20:08:24.507Z,1.35
2022-07-30T20:10:53.150Z,1.27
2022-07-30T20:13:22.297Z,1.33
2022-07-30T20:15:53.500Z,1.50
2022-07-30T20:18:29.078Z,1.20
2022-07-30T20:20:57.647Z,1.20
2022-07-30T20:23:25.799Z,1.52
2022-07-30T20:25:55.696Z,1.20
2022-07-30T20:28:25.968Z,1.27
2022-07-30T20:30:53.885Z,1.15
2022-07-30T20:33:36.069Z,1.70
2022-07-30T20:36:06.159Z,1.10
2022-07-30T20:38:38.892Z,1.40
2022-07-30T20:41:09.996Z,1.17
2022-07-30T20:43:45.937Z,1.30
2022-07-30T20:46:24.010Z,1.38
2022-07-30T20:48:52.855Z,1.50
2022-07-30T20:51:21.477Z,1.50
2022-07-30T20:54:00.777Z,1.15
2022-07-30T20:56:29.693Z,1.50
2022-07-30T20:58:59.170Z,1.58
2022-07-30T21:01:28.345Z,1.40
2022-07-30T21:03:58.715Z,1.55
2022-07-30T21:06:26.646Z,1.70
2022-07-30T21:08:56.045Z,1.42
2022-07-30T21:11:24.972Z,1.30
2022-07-30T21:13:53.894Z,1.48
2022-07-30T21:16:26.863Z,1.45
2022-07-30T21:21:30.711Z,1.30
2022-07-30T21:24:12.249Z,1.42
2022-07-30T21:26:41.375Z,10.45
2022-07-30T21:29:10.414Z,10.02
2022-07-30T21:32:01.820Z,2.35
2022-07-30T21:34:30.819Z,1.92
2022-07-30T21:37:03.137Z,1.55
2022-07-30T21:39:31.046Z,1.73
2022-07-30T21:41:58.878Z,1.73
2022-07-30T21:44:26.740Z,1.50
2022-07-30T21:46:56.062Z,1.80
2022-07-30T21:49:24.268Z,1.55
2022-07-30T21:51:52.161Z,1.77
2022-07-30T21:57:07.896Z,2.30
2022-07-30T21:59:35.748Z,2.13
2022-07-30T22:02:05.597Z,2.00
2022-07-30T22:04:43.805Z,1.73
2022-07-30T22:07:15.432Z,1.90
2022-07-30T22:09:43.242Z,1.60
2022-07-30T22:12:11.755Z,2.05
2022-07-30T22:14:40.226Z,2.20
2022-07-30T22:17:22.372Z,2.00
2022-07-30T22:19:53.681Z,1.98
2022-07-30T22:22:27.150Z,1.75
2022-07-30T22:24:58.236Z,2.00
2022-07-30T22:27:27.924Z,1.80
2022-07-30T22:30:09.492Z,2.17
2022-07-30T22:32:38.984Z,2.17
2022-07-30T22:35:08.425Z,2.70
2022-07-30T22:37:38.249Z,2.30
2022-07-30T22:40:07.782Z,1.95
2022-07-30T22:42:46.629Z,2.13
2022-07-30T22:45:36.002Z,1.70
2022-07-30T22:48:10.771Z,2.00
2022-07-30T22:50:39.789Z,1.80
2022-07-30T22:53:19.714Z,1.88
2022-07-30T22:55:56.017Z,1.20
2022-07-30T22:58:26.272Z,1.90
2022-07-30T23:00:54.512Z,1.77
2022-07-30T23:03:23.656Z,1.80
2022-07-30T23:05:55.345Z,2.42
2022-07-30T23:08:29.810Z,1.55
2022-07-30T23:10:59.263Z,1.70
2022-07-30T23:12:27.818Z,1.75
2022-07-30T23:13:28.079Z,1.77
2022-07-30T23:15:55.860Z,1.70
2022-07-30T23:18:24.994Z,1.60
2022-07-30T23:20:55.007Z,1.58
2022-07-30T23:23:24.960Z,1.90
2022-07-30T23:25:52.724Z,1.70
2022-07-30T23:28:20.485Z,1.70
2022-07-30T23:30:48.968Z,1.67
2022-07-30T23:33:18.007Z,1.75
2022-07-30T23:35:47.845Z,17.05
2022-07-30T23:38:15.777Z,5.63
2022-07-30T23:40:43.563Z,2.22
2022-07-30T23:43:11.346Z,1.70
2022-07-30T23:45:40.200Z,1.70
2022-07-30T23:48:08.415Z,1.73
2022-07-30T23:50:36.586Z,1.52
2022-07-30T23:53:06.146Z,1.90
2022-07-30T23:55:34.128Z,2.42
2022-07-30T23:58:01.913Z,2.22
